sensor_id;sensor_type;location;lat;lon;timestamp;P1;durP1;ratioP1;P2;durP2;ratioP2
27746;SDS011;15138;51.012;4.692;2024-01-10T00:00:48;10.50;;;4.15;;
27746;SDS011;15138;51.012;4.692;2024-01-10T00:03:17;13.13;;;4.53;;
27746;SDS011;15138;51.012;4.692;2024-01-10T00:05:45;8.05;;;4.30;;
27746;SDS011;15138;51.012;4.692;2024-01-10T00:08:14;7.90;;;4.57;;
27746;SDS011;15138;51.012;4.692;2024-01-10T00:10:41;10.30;;;4.25;;
27746;SDS011;15138;51.012;4.692;2024-01-10T00:13:10;10.48;;;5.38;;
27746;SDS011;15138;51.012;4.692;2024-01-10T00:15:38;8.48;;;4.07;;
27746;SDS011;15138;51.012;4.692;2024-01-10T00:18:08;7.28;;;3.25;;
27746;SDS011;15138;51.012;4.692;2024-01-10T00:20:37;11.98;;;4.68;;
27746;SDS011;15138;51.012;4.692;2024-01-10T00:23:05;9.70;;;4.25;;
27746;SDS011;15138;51.012;4.692;2024-01-10T00:25:34;11.68;;;4.88;;
27746;SDS011;15138;51.012;4.692;2024-01-10T00:28:03;8.63;;;3.67;;
27746;SDS011;15138;51.012;4.692;2024-01-10T00:30:31;9.27;;;4.28;;
27746;SDS011;15138;51.012;4.692;2024-01-10T00:33:00;12.48;;;4.45;;
27746;SDS011;15138;51.012;4.692;2024-01-10T00:35:30;11.82;;;4.07;;
27746;SDS011;15138;51.012;4.692;2024-01-10T00:37:58;8.40;;;4.35;;
27746;SDS011;15138;51.012;4.692;2024-01-10T00:40:27;10.52;;;5.05;;
27746;SDS011;15138;51.012;4.692;2024-01-10T00:42:55;8.85;;;3.70;;
27746;SDS011;15138;51.012;4.692;2024-01-10T00:45:24;7.45;;;3.75;;
27746;SDS011;15138;51.012;4.692;2024-01-10T00:47:52;10.77;;;4.35;;
27746;SDS011;15138;51.012;4.692;2024-01-10T00:50:21;5.90;;;3.40;;
27746;SDS011;15138;51.012;4.692;2024-01-10T00:52:51;12.77;;;5.82;;
27746;SDS011;15138;51.012;4.692;2024-01-10T00:55:19;7.43;;;3.08;;
27746;SDS011;15138;51.012;4.692;2024-01-10T00:57:48;9.80;;;3.83;;
27746;SDS011;15138;51.012;4.692;2024-01-10T01:00:16;9.60;;;4.40;;
27746;SDS011;15138;51.012;4.692;2024-01-10T01:02:45;7.43;;;3.78;;
27746;SDS011;15138;51.012;4.692;2024-01-10T01:05:13;9.00;;;4.10;;
27746;SDS011;15138;51.012;4.692;2024-01-10T01:07:42;9.20;;;4.97;;
27746;SDS011;15138;51.012;4.692;2024-01-10T01:10:12;8.05;;;3.70;;
27746;SDS011;15138;51.012;4.692;2024-01-10T01:12:40;9.38;;;3.75;;
27746;SDS011;15138;51.012;4.692;2024-01-10T01:15:09;6.00;;;3.50;;
27746;SDS011;15138;51.012;4.692;2024-01-10T01:17:37;10.50;;;5.30;;
27746;SDS011;15138;51.012;4.692;2024-01-10T01:20:06;9.23;;;4.57;;
27746;SDS011;15138;51.012;4.692;2024-01-10T01:22:35;5.28;;;3.22;;
27746;SDS011;15138;51.012;4.692;2024-01-10T01:25:04;7.70;;;3.75;;
27746;SDS011;15138;51.012;4.692;2024-01-10T01:27:34;8.60;;;4.35;;
27746;SDS011;15138;51.012;4.692;2024-01-10T01:30:03;8.95;;;3.63;;
27746;SDS011;15138;51.012;4.692;2024-01-10T01:32:32;6.85;;;4.30;;
27746;SDS011;15138;51.012;4.692;2024-01-10T01:35:00;8.85;;;3.75;;
27746;SDS011;15138;51.012;4.692;2024-01-10T01:37:29;6.30;;;3.22;;
27746;SDS011;15138;51.012;4.692;2024-01-10T01:39:58;10.77;;;4.93;;
27746;SDS011;15138;51.012;4.692;2024-01-10T01:42:26;7.10;;;3.33;;
27746;SDS011;15138;51.012;4.692;2024-01-10T01:44:56;6.68;;;3.17;;
27746;SDS011;15138;51.012;4.692;2024-01-10T01:47:24;5.55;;;2.95;;
27746;SDS011;15138;51.012;4.692;2024-01-10T01:49:54;9.88;;;4.40;;
27746;SDS011;15138;51.012;4.692;2024-01-10T01:52:23;8.77;;;4.22;;
27746;SDS011;15138;51.012;4.692;2024-01-10T01:54:51;9.35;;;3.95;;
27746;SDS011;15138;51.012;4.692;2024-01-10T01:57:20;8.82;;;3.97;;
27746;SDS011;15138;51.012;4.692;2024-01-10T01:59:48;7.85;;;3.70;;
27746;SDS011;15138;51.012;4.692;2024-01-10T02:02:19;9.35;;;3.92;;
27746;SDS011;15138;51.012;4.692;2024-01-10T02:04:48;7.00;;;3.63;;
27746;SDS011;15138;51.012;4.692;2024-01-10T02:07:17;10.52;;;4.60;;
27746;SDS011;15138;51.012;4.692;2024-01-10T02:09:46;10.40;;;4.53;;
27746;SDS011;15138;51.012;4.692;2024-01-10T02:12:14;6.25;;;3.22;;
27746;SDS011;15138;51.012;4.692;2024-01-10T02:14:43;9.60;;;5.20;;
27746;SDS011;15138;51.012;4.692;2024-01-10T02:17:11;8.68;;;4.35;;
27746;SDS011;15138;51.012;4.692;2024-01-10T02:19:42;7.88;;;3.80;;
27746;SDS011;15138;51.012;4.692;2024-01-10T02:22:10;6.70;;;3.25;;
27746;SDS011;15138;51.012;4.692;2024-01-10T02:24:39;7.65;;;3.60;;
27746;SDS011;15138;51.012;4.692;2024-01-10T02:27:08;8.95;;;3.70;;
27746;SDS011;15138;51.012;4.692;2024-01-10T02:29:37;8.23;;;3.55;;
27746;SDS011;15138;51.012;4.692;2024-01-10T02:32:06;7.03;;;3.53;;
27746;SDS011;15138;51.012;4.692;2024-01-10T02:34:34;10.48;;;4.72;;
27746;SDS011;15138;51.012;4.692;2024-01-10T02:37:03;6.10;;;3.45;;
27746;SDS011;15138;51.012;4.692;2024-01-10T02:39:32;7.47;;;3.45;;
27746;SDS011;15138;51.012;4.692;2024-01-10T02:42:00;6.72;;;3.50;;
27746;SDS011;15138;51.012;4.692;2024-01-10T02:44:30;10.38;;;5.03;;
27746;SDS011;15138;51.012;4.692;2024-01-10T02:46:58;9.15;;;4.20;;
27746;SDS011;15138;51.012;4.692;2024-01-10T02:49:27;7.45;;;3.67;;
27746;SDS011;15138;51.012;4.692;2024-01-10T02:51:55;9.68;;;4.03;;
27746;SDS011;15138;51.012;4.692;2024-01-10T02:54:24;7.97;;;3.70;;
27746;SDS011;15138;51.012;4.692;2024-01-10T02:56:52;9.90;;;4.80;;
27746;SDS011;15138;51.012;4.692;2024-01-10T02:59:21;8.40;;;3.83;;
27746;SDS011;15138;51.012;4.692;2024-01-10T03:01:51;5.45;;;3.08;;
27746;SDS011;15138;51.012;4.692;2024-01-10T03:04:19;11.18;;;4.20;;
27746;SDS011;15138;51.012;4.692;2024-01-10T03:06:48;8.93;;;4.30;;
27746;SDS011;15138;51.012;4.692;2024-01-10T03:09:16;8.43;;;4.43;;
27746;SDS011;15138;51.012;4.692;2024-01-10T03:11:45;7.57;;;3.50;;
27746;SDS011;15138;51.012;4.692;2024-01-10T03:14:13;7.88;;;4.03;;
27746;SDS011;15138;51.012;4.692;2024-01-10T03:16:42;6.55;;;3.47;;
27746;SDS011;15138;51.012;4.692;2024-01-10T03:19:12;13.63;;;5.68;;
27746;SDS011;15138;51.012;4.692;2024-01-10T03:21:40;6.43;;;3.67;;
27746;SDS011;15138;51.012;4.692;2024-01-10T03:24:09;11.45;;;5.18;;
27746;SDS011;15138;51.012;4.692;2024-01-10T03:26:37;6.13;;;3.38;;
27746;SDS011;15138;51.012;4.692;2024-01-10T03:29:06;10.70;;;4.70;;
27746;SDS011;15138;51.012;4.692;2024-01-10T03:31:34;8.65;;;4.28;;
27746;SDS011;15138;51.012;4.692;2024-01-10T03:34:03;10.75;;;3.83;;
27746;SDS011;15138;51.012;4.692;2024-01-10T03:36:33;7.97;;;4.07;;
27746;SDS011;15138;51.012;4.692;2024-01-10T03:39:02;7.43;;;3.55;;
27746;SDS011;15138;51.012;4.692;2024-01-10T03:41:30;8.70;;;4.65;;
27746;SDS011;15138;51.012;4.692;2024-01-10T03:43:59;5.93;;;3.50;;
27746;SDS011;15138;51.012;4.692;2024-01-10T03:46:27;10.00;;;4.88;;
27746;SDS011;15138;51.012;4.692;2024-01-10T03:48:56;10.10;;;4.05;;
27746;SDS011;15138;51.012;4.692;2024-01-10T03:51:24;9.80;;;5.13;;
27746;SDS011;15138;51.012;4.692;2024-01-10T03:53:54;11.50;;;5.53;;
27746;SDS011;15138;51.012;4.692;2024-01-10T03:56:23;7.93;;;4.35;;
27746;SDS011;15138;51.012;4.692;2024-01-10T03:58:52;9.85;;;4.80;;
27746;SDS011;15138;51.012;4.692;2024-01-10T04:01:21;9.13;;;4.10;;
27746;SDS011;15138;51.012;4.692;2024-01-10T04:03:50;8.88;;;4.53;;
27746;SDS011;15138;51.012;4.692;2024-01-10T04:06:19;6.13;;;3.35;;
27746;SDS011;15138;51.012;4.692;2024-01-10T04:08:47;6.80;;;3.65;;
27746;SDS011;15138;51.012;4.692;2024-01-10T04:11:17;9.57;;;4.32;;
27746;SDS011;15138;51.012;4.692;2024-01-10T04:13:46;7.40;;;3.25;;
27746;SDS011;15138;51.012;4.692;2024-01-10T04:16:14;9.10;;;3.67;;
27746;SDS011;15138;51.012;4.692;2024-01-10T04:18:43;10.05;;;4.57;;
27746;SDS011;15138;51.012;4.692;2024-01-10T04:21:11;8.98;;;3.88;;
27746;SDS011;15138;51.012;4.692;2024-01-10T04:23:40;7.82;;;4.18;;
27746;SDS011;15138;51.012;4.692;2024-01-10T04:26:08;9.77;;;3.88;;
27746;SDS011;15138;51.012;4.692;2024-01-10T04:28:38;6.60;;;3.70;;
27746;SDS011;15138;51.012;4.692;2024-01-10T04:31:07;7.25;;;4.00;;
27746;SDS011;15138;51.012;4.692;2024-01-10T04:33:36;6.95;;;3.83;;
27746;SDS011;15138;51.012;4.692;2024-01-10T04:36:05;7.22;;;3.35;;
27746;SDS011;15138;51.012;4.692;2024-01-10T04:38:34;10.70;;;4.63;;
27746;SDS011;15138;51.012;4.692;2024-01-10T04:41:02;9.68;;;4.22;;
27746;SDS011;15138;51.012;4.692;2024-01-10T04:43:31;7.60;;;3.55;;
27746;SDS011;15138;51.012;4.692;2024-01-10T04:46:00;7.90;;;3.90;;
27746;SDS011;15138;51.012;4.692;2024-01-10T04:48:29;8.38;;;4.30;;
27746;SDS011;15138;51.012;4.692;2024-01-10T04:50:58;10.00;;;4.00;;
27746;SDS011;15138;51.012;4.692;2024-01-10T04:53:26;8.65;;;4.47;;
27746;SDS011;15138;51.012;4.692;2024-01-10T04:55:55;8.10;;;4.40;;
27746;SDS011;15138;51.012;4.692;2024-01-10T04:58:24;7.18;;;3.75;;
27746;SDS011;15138;51.012;4.692;2024-01-10T05:00:52;7.20;;;3.72;;
27746;SDS011;15138;51.012;4.692;2024-01-10T05:03:22;10.13;;;4.53;;
27746;SDS011;15138;51.012;4.692;2024-01-10T05:05:50;10.77;;;4.35;;
27746;SDS011;15138;51.012;4.692;2024-01-10T05:08:19;9.10;;;4.85;;
27746;SDS011;15138;51.012;4.692;2024-01-10T05:10:48;8.55;;;3.88;;
27746;SDS011;15138;51.012;4.692;2024-01-10T05:13:16;8.95;;;3.78;;
27746;SDS011;15138;51.012;4.692;2024-01-10T05:15:45;8.07;;;3.83;;
27746;SDS011;15138;51.012;4.692;2024-01-10T05:18:14;7.13;;;3.67;;
27746;SDS011;15138;51.012;4.692;2024-01-10T05:20:44;8.82;;;4.05;;
27746;SDS011;15138;51.012;4.692;2024-01-10T05:23:13;8.05;;;3.53;;
27746;SDS011;15138;51.012;4.692;2024-01-10T05:25:42;6.07;;;3.13;;
27746;SDS011;15138;51.012;4.692;2024-01-10T05:28:10;7.30;;;4.10;;
27746;SDS011;15138;51.012;4.692;2024-01-10T05:30:39;7.85;;;3.85;;
27746;SDS011;15138;51.012;4.692;2024-01-10T05:33:09;9.02;;;4.45;;
27746;SDS011;15138;51.012;4.692;2024-01-10T05:35:38;7.78;;;3.85;;
27746;SDS011;15138;51.012;4.692;2024-01-10T05:38:08;6.18;;;3.83;;
27746;SDS011;15138;51.012;4.692;2024-01-10T05:40:37;7.18;;;3.92;;
27746;SDS011;15138;51.012;4.692;2024-01-10T05:43:05;7.35;;;3.67;;
27746;SDS011;15138;51.012;4.692;2024-01-10T05:45:34;8.25;;;3.42;;
27746;SDS011;15138;51.012;4.692;2024-01-10T05:48:03;8.23;;;4.10;;
27746;SDS011;15138;51.012;4.692;2024-01-10T05:50:33;6.88;;;2.95;;
27746;SDS011;15138;51.012;4.692;2024-01-10T05:53:01;8.82;;;3.83;;
27746;SDS011;15138;51.012;4.692;2024-01-10T05:55:31;7.85;;;3.42;;
27746;SDS011;15138;51.012;4.692;2024-01-10T05:57:59;7.05;;;3.50;;
27746;SDS011;15138;51.012;4.692;2024-01-10T06:00:28;8.05;;;3.58;;
27746;SDS011;15138;51.012;4.692;2024-01-10T06:02:56;7.15;;;3.22;;
27746;SDS011;15138;51.012;4.692;2024-01-10T06:05:25;5.78;;;3.53;;
27746;SDS011;15138;51.012;4.692;2024-01-10T06:07:54;7.32;;;3.42;;
27746;SDS011;15138;51.012;4.692;2024-01-10T06:10:23;6.35;;;3.45;;
27746;SDS011;15138;51.012;4.692;2024-01-10T06:12:52;7.85;;;3.90;;
27746;SDS011;15138;51.012;4.692;2024-01-10T06:15:21;10.95;;;5.00;;
27746;SDS011;15138;51.012;4.692;2024-01-10T06:17:50;7.35;;;3.70;;
27746;SDS011;15138;51.012;4.692;2024-01-10T06:20:19;6.53;;;3.63;;
27746;SDS011;15138;51.012;4.692;2024-01-10T06:22:47;10.90;;;4.20;;
27746;SDS011;15138;51.012;4.692;2024-01-10T06:25:16;10.35;;;4.60;;
27746;SDS011;15138;51.012;4.692;2024-01-10T06:27:44;8.70;;;3.80;;
27746;SDS011;15138;51.012;4.692;2024-01-10T06:30:14;11.77;;;4.38;;
27746;SDS011;15138;51.012;4.692;2024-01-10T06:32:43;10.05;;;4.20;;
27746;SDS011;15138;51.012;4.692;2024-01-10T06:35:11;6.95;;;3.80;;
27746;SDS011;15138;51.012;4.692;2024-01-10T06:37:41;8.00;;;3.58;;
27746;SDS011;15138;51.012;4.692;2024-01-10T06:40:11;9.90;;;4.72;;
27746;SDS011;15138;51.012;4.692;2024-01-10T06:42:39;8.43;;;3.95;;
27746;SDS011;15138;51.012;4.692;2024-01-10T06:45:08;5.93;;;3.22;;
27746;SDS011;15138;51.012;4.692;2024-01-10T06:47:39;6.93;;;3.47;;
27746;SDS011;15138;51.012;4.692;2024-01-10T06:50:08;10.32;;;4.85;;
27746;SDS011;15138;51.012;4.692;2024-01-10T06:52:37;8.75;;;3.95;;
27746;SDS011;15138;51.012;4.692;2024-01-10T06:55:07;11.60;;;4.82;;
27746;SDS011;15138;51.012;4.692;2024-01-10T06:57:35;10.05;;;5.18;;
27746;SDS011;15138;51.012;4.692;2024-01-10T07:00:04;14.50;;;4.95;;
27746;SDS011;15138;51.012;4.692;2024-01-10T07:02:37;7.63;;;3.83;;
27746;SDS011;15138;51.012;4.692;2024-01-10T07:05:08;9.52;;;4.57;;
27746;SDS011;15138;51.012;4.692;2024-01-10T07:07:37;11.95;;;5.72;;
27746;SDS011;15138;51.012;4.692;2024-01-10T07:10:06;10.48;;;4.90;;
27746;SDS011;15138;51.012;4.692;2024-01-10T07:12:34;9.73;;;3.90;;
27746;SDS011;15138;51.012;4.692;2024-01-10T07:15:03;8.10;;;4.35;;
27746;SDS011;15138;51.012;4.692;2024-01-10T07:17:32;11.50;;;5.38;;
27746;SDS011;15138;51.012;4.692;2024-01-10T07:20:00;13.25;;;5.80;;
27746;SDS011;15138;51.012;4.692;2024-01-10T07:22:32;12.57;;;5.00;;
27746;SDS011;15138;51.012;4.692;2024-01-10T07:25:01;8.73;;;3.95;;
27746;SDS011;15138;51.012;4.692;2024-01-10T07:27:31;15.05;;;6.38;;
27746;SDS011;15138;51.012;4.692;2024-01-10T07:30:00;10.98;;;5.28;;
27746;SDS011;15138;51.012;4.692;2024-01-10T07:32:28;7.85;;;4.10;;
27746;SDS011;15138;51.012;4.692;2024-01-10T07:34:57;10.02;;;4.53;;
27746;SDS011;15138;51.012;4.692;2024-01-10T07:37:26;10.52;;;4.57;;
27746;SDS011;15138;51.012;4.692;2024-01-10T07:39:56;9.60;;;5.07;;
27746;SDS011;15138;51.012;4.692;2024-01-10T07:42:25;12.55;;;5.13;;
27746;SDS011;15138;51.012;4.692;2024-01-10T07:44:54;13.60;;;4.93;;
27746;SDS011;15138;51.012;4.692;2024-01-10T07:47:23;10.73;;;4.22;;
27746;SDS011;15138;51.012;4.692;2024-01-10T07:49:51;12.38;;;5.65;;
27746;SDS011;15138;51.012;4.692;2024-01-10T07:52:20;10.73;;;5.15;;
27746;SDS011;15138;51.012;4.692;2024-01-10T07:54:50;6.63;;;3.80;;
27746;SDS011;15138;51.012;4.692;2024-01-10T07:57:20;9.50;;;4.45;;
27746;SDS011;15138;51.012;4.692;2024-01-10T07:59:49;10.38;;;5.45;;
27746;SDS011;15138;51.012;4.692;2024-01-10T08:02:17;9.70;;;4.63;;
27746;SDS011;15138;51.012;4.692;2024-01-10T08:04:46;10.40;;;5.15;;
27746;SDS011;15138;51.012;4.692;2024-01-10T08:07:14;11.90;;;4.57;;
27746;SDS011;15138;51.012;4.692;2024-01-10T08:09:43;13.13;;;5.53;;
27746;SDS011;15138;51.012;4.692;2024-01-10T08:12:11;10.55;;;4.80;;
27746;SDS011;15138;51.012;4.692;2024-01-10T08:14:41;9.68;;;4.97;;
27746;SDS011;15138;51.012;4.692;2024-01-10T08:17:12;10.95;;;4.90;;
27746;SDS011;15138;51.012;4.692;2024-01-10T08:19:41;10.13;;;4.75;;
27746;SDS011;15138;51.012;4.692;2024-01-10T08:22:10;10.95;;;5.07;;
27746;SDS011;15138;51.012;4.692;2024-01-10T08:24:39;9.55;;;5.30;;
27746;SDS011;15138;51.012;4.692;2024-01-10T08:27:08;12.32;;;5.07;;
27746;SDS011;15138;51.012;4.692;2024-01-10T08:29:36;10.80;;;5.32;;
27746;SDS011;15138;51.012;4.692;2024-01-10T08:32:06;14.45;;;5.13;;
27746;SDS011;15138;51.012;4.692;2024-01-10T08:34:35;15.57;;;5.95;;
27746;SDS011;15138;51.012;4.692;2024-01-10T08:37:03;12.70;;;6.00;;
27746;SDS011;15138;51.012;4.692;2024-01-10T08:39:32;16.00;;;6.95;;
27746;SDS011;15138;51.012;4.692;2024-01-10T08:42:00;13.73;;;5.97;;
27746;SDS011;15138;51.012;4.692;2024-01-10T08:44:29;16.48;;;6.40;;
27746;SDS011;15138;51.012;4.692;2024-01-10T08:46:58;16.48;;;7.30;;
27746;SDS011;15138;51.012;4.692;2024-01-10T08:49:28;15.75;;;5.70;;
27746;SDS011;15138;51.012;4.692;2024-01-10T08:51:56;14.73;;;6.72;;
27746;SDS011;15138;51.012;4.692;2024-01-10T08:54:25;15.57;;;6.32;;
27746;SDS011;15138;51.012;4.692;2024-01-10T08:56:53;14.90;;;6.78;;
27746;SDS011;15138;51.012;4.692;2024-01-10T08:59:21;17.80;;;6.40;;
27746;SDS011;15138;51.012;4.692;2024-01-10T09:01:50;15.43;;;6.40;;
27746;SDS011;15138;51.012;4.692;2024-01-10T09:04:19;9.82;;;4.15;;
27746;SDS011;15138;51.012;4.692;2024-01-10T09:06:49;10.95;;;5.30;;
27746;SDS011;15138;51.012;4.692;2024-01-10T09:09:17;11.55;;;5.97;;
27746;SDS011;15138;51.012;4.692;2024-01-10T09:11:47;12.93;;;5.88;;
27746;SDS011;15138;51.012;4.692;2024-01-10T09:14:15;13.43;;;6.25;;
27746;SDS011;15138;51.012;4.692;2024-01-10T09:16:44;18.58;;;7.10;;
27746;SDS011;15138;51.012;4.692;2024-01-10T09:19:13;10.48;;;5.88;;
27746;SDS011;15138;51.012;4.692;2024-01-10T09:21:41;16.45;;;7.47;;
27746;SDS011;15138;51.012;4.692;2024-01-10T09:24:11;15.93;;;6.55;;
27746;SDS011;15138;51.012;4.692;2024-01-10T09:26:54;17.38;;;7.32;;
27746;SDS011;15138;51.012;4.692;2024-01-10T09:29:23;17.88;;;7.28;;
27746;SDS011;15138;51.012;4.692;2024-01-10T09:31:52;17.95;;;6.47;;
27746;SDS011;15138;51.012;4.692;2024-01-10T09:34:21;17.27;;;6.70;;
27746;SDS011;15138;51.012;4.692;2024-01-10T09:36:50;12.32;;;6.13;;
27746;SDS011;15138;51.012;4.692;2024-01-10T09:39:20;11.82;;;5.53;;
27746;SDS011;15138;51.012;4.692;2024-01-10T09:41:49;14.27;;;6.28;;
27746;SDS011;15138;51.012;4.692;2024-01-10T09:44:18;11.65;;;5.35;;
27746;SDS011;15138;51.012;4.692;2024-01-10T09:46:51;11.60;;;5.63;;
27746;SDS011;15138;51.012;4.692;2024-01-10T09:49:19;10.50;;;4.75;;
27746;SDS011;15138;51.012;4.692;2024-01-10T09:51:49;14.38;;;6.80;;
27746;SDS011;15138;51.012;4.692;2024-01-10T09:54:20;19.00;;;7.43;;
27746;SDS011;15138;51.012;4.692;2024-01-10T09:56:49;15.13;;;6.80;;
27746;SDS011;15138;51.012;4.692;2024-01-10T09:59:19;14.23;;;6.72;;
27746;SDS011;15138;51.012;4.692;2024-01-10T10:01:48;17.38;;;6.85;;
27746;SDS011;15138;51.012;4.692;2024-01-10T10:04:16;12.40;;;6.18;;
27746;SDS011;15138;51.012;4.692;2024-01-10T10:06:46;15.85;;;6.72;;
27746;SDS011;15138;51.012;4.692;2024-01-10T10:09:15;13.20;;;6.38;;
27746;SDS011;15138;51.012;4.692;2024-01-10T10:11:47;15.95;;;6.60;;
27746;SDS011;15138;51.012;4.692;2024-01-10T10:14:20;16.77;;;6.55;;
27746;SDS011;15138;51.012;4.692;2024-01-10T10:16:49;12.88;;;6.30;;
27746;SDS011;15138;51.012;4.692;2024-01-10T10:19:22;13.90;;;6.07;;
27746;SDS011;15138;51.012;4.692;2024-01-10T10:22:07;15.32;;;6.88;;
27746;SDS011;15138;51.012;4.692;2024-01-10T10:24:36;11.82;;;5.72;;
27746;SDS011;15138;51.012;4.692;2024-01-10T10:27:08;15.10;;;7.03;;
27746;SDS011;15138;51.012;4.692;2024-01-10T10:29:37;14.90;;;6.72;;
27746;SDS011;15138;51.012;4.692;2024-01-10T10:32:06;16.65;;;7.80;;
27746;SDS011;15138;51.012;4.692;2024-01-10T10:34:35;12.30;;;5.55;;
27746;SDS011;15138;51.012;4.692;2024-01-10T10:37:04;12.88;;;6.30;;
27746;SDS011;15138;51.012;4.692;2024-01-10T10:39:32;15.63;;;7.38;;
27746;SDS011;15138;51.012;4.692;2024-01-10T10:42:01;19.95;;;7.78;;
27746;SDS011;15138;51.012;4.692;2024-01-10T10:44:31;16.90;;;7.05;;
27746;SDS011;15138;51.012;4.692;2024-01-10T10:47:04;15.50;;;7.55;;
27746;SDS011;15138;51.012;4.692;2024-01-10T10:49:40;18.00;;;6.82;;
27746;SDS011;15138;51.012;4.692;2024-01-10T10:52:10;15.15;;;6.63;;
27746;SDS011;15138;51.012;4.692;2024-01-10T10:54:39;18.55;;;7.95;;
27746;SDS011;15138;51.012;4.692;2024-01-10T10:57:08;14.35;;;7.18;;
27746;SDS011;15138;51.012;4.692;2024-01-10T10:59:39;15.95;;;6.93;;
27746;SDS011;15138;51.012;4.692;2024-01-10T11:02:07;15.93;;;7.00;;
27746;SDS011;15138;51.012;4.692;2024-01-10T11:04:38;18.27;;;7.40;;
27746;SDS011;15138;51.012;4.692;2024-01-10T11:07:08;15.73;;;6.93;;
27746;SDS011;15138;51.012;4.692;2024-01-10T11:09:37;18.35;;;7.10;;
27746;SDS011;15138;51.012;4.692;2024-01-10T11:12:11;17.00;;;7.75;;
27746;SDS011;15138;51.012;4.692;2024-01-10T11:14:50;16.55;;;6.63;;
27746;SDS011;15138;51.012;4.692;2024-01-10T11:17:26;17.15;;;7.70;;
27746;SDS011;15138;51.012;4.692;2024-01-10T11:23:01;17.85;;;7.88;;
27746;SDS011;15138;51.012;4.692;2024-01-10T11:25:32;18.63;;;7.57;;
27746;SDS011;15138;51.012;4.692;2024-01-10T11:28:03;19.60;;;7.75;;
27746;SDS011;15138;51.012;4.692;2024-01-10T11:30:35;16.30;;;8.15;;
27746;SDS011;15138;51.012;4.692;2024-01-10T11:33:21;17.63;;;8.27;;
27746;SDS011;15138;51.012;4.692;2024-01-10T11:36:06;16.10;;;7.63;;
27746;SDS011;15138;51.012;4.692;2024-01-10T11:38:40;21.80;;;8.70;;
27746;SDS011;15138;51.012;4.692;2024-01-10T11:41:13;8.95;;;4.30;;
27746;SDS011;15138;51.012;4.692;2024-01-10T11:43:46;23.35;;;7.82;;
27746;SDS011;15138;51.012;4.692;2024-01-10T11:46:16;10.80;;;5.63;;
27746;SDS011;15138;51.012;4.692;2024-01-10T11:48:47;17.33;;;7.85;;
27746;SDS011;15138;51.012;4.692;2024-01-10T11:51:17;15.55;;;7.25;;
27746;SDS011;15138;51.012;4.692;2024-01-10T11:53:47;16.00;;;7.05;;
27746;SDS011;15138;51.012;4.692;2024-01-10T11:56:17;20.27;;;7.75;;
27746;SDS011;15138;51.012;4.692;2024-01-10T11:59:01;13.57;;;7.28;;
27746;SDS011;15138;51.012;4.692;2024-01-10T12:01:32;17.90;;;7.97;;
27746;SDS011;15138;51.012;4.692;2024-01-10T12:04:01;14.52;;;7.25;;
27746;SDS011;15138;51.012;4.692;2024-01-10T12:06:45;19.85;;;6.85;;
27746;SDS011;15138;51.012;4.692;2024-01-10T12:09:14;17.45;;;7.72;;
27746;SDS011;15138;51.012;4.692;2024-01-10T12:11:43;21.92;;;8.18;;
27746;SDS011;15138;51.012;4.692;2024-01-10T12:14:11;16.27;;;6.90;;
27746;SDS011;15138;51.012;4.692;2024-01-10T12:16:42;18.63;;;8.10;;
27746;SDS011;15138;51.012;4.692;2024-01-10T12:19:10;14.93;;;6.47;;
27746;SDS011;15138;51.012;4.692;2024-01-10T12:21:39;20.40;;;7.30;;
27746;SDS011;15138;51.012;4.692;2024-01-10T12:24:08;17.75;;;7.72;;
27746;SDS011;15138;51.012;4.692;2024-01-10T12:26:42;18.90;;;7.80;;
27746;SDS011;15138;51.012;4.692;2024-01-10T12:29:11;15.80;;;7.73;;
27746;SDS011;15138;51.012;4.692;2024-01-10T12:31:40;16.48;;;7.60;;
27746;SDS011;15138;51.012;4.692;2024-01-10T12:34:11;16.48;;;7.22;;
27746;SDS011;15138;51.012;4.692;2024-01-10T12:36:40;17.10;;;7.88;;
27746;SDS011;15138;51.012;4.692;2024-01-10T12:39:09;16.23;;;8.00;;
27746;SDS011;15138;51.012;4.692;2024-01-10T12:41:38;18.98;;;8.05;;
27746;SDS011;15138;51.012;4.692;2024-01-10T12:44:09;13.85;;;6.40;;
27746;SDS011;15138;51.012;4.692;2024-01-10T12:46:49;14.00;;;6.28;;
27746;SDS011;15138;51.012;4.692;2024-01-10T12:49:19;18.90;;;9.00;;
27746;SDS011;15138;51.012;4.692;2024-01-10T12:51:50;15.75;;;7.07;;
27746;SDS011;15138;51.012;4.692;2024-01-10T12:54:18;20.85;;;7.88;;
27746;SDS011;15138;51.012;4.692;2024-01-10T12:56:47;18.08;;;8.35;;
27746;SDS011;15138;51.012;4.692;2024-01-10T12:59:16;14.30;;;7.03;;
27746;SDS011;15138;51.012;4.692;2024-01-10T13:01:45;21.05;;;6.88;;
27746;SDS011;15138;51.012;4.692;2024-01-10T13:04:13;16.67;;;7.60;;
27746;SDS011;15138;51.012;4.692;2024-01-10T13:06:43;21.33;;;7.82;;
27746;SDS011;15138;51.012;4.692;2024-01-10T13:09:11;19.83;;;9.40;;
27746;SDS011;15138;51.012;4.692;2024-01-10T13:11:40;17.83;;;9.02;;
27746;SDS011;15138;51.012;4.692;2024-01-10T13:14:08;17.92;;;8.45;;
27746;SDS011;15138;51.012;4.692;2024-01-10T13:16:37;21.08;;;8.13;;
27746;SDS011;15138;51.012;4.692;2024-01-10T13:19:21;16.00;;;7.72;;
27746;SDS011;15138;51.012;4.692;2024-01-10T13:21:53;21.85;;;8.73;;
27746;SDS011;15138;51.012;4.692;2024-01-10T13:24:21;17.15;;;7.65;;
27746;SDS011;15138;51.012;4.692;2024-01-10T13:26:51;21.35;;;8.48;;
27746;SDS011;15138;51.012;4.692;2024-01-10T13:29:19;19.58;;;8.85;;
27746;SDS011;15138;51.012;4.692;2024-01-10T13:31:48;20.00;;;8.60;;
27746;SDS011;15138;51.012;4.692;2024-01-10T13:34:17;19.25;;;8.82;;
27746;SDS011;15138;51.012;4.692;2024-01-10T13:36:46;19.40;;;8.70;;
27746;SDS011;15138;51.012;4.692;2024-01-10T13:39:16;19.55;;;8.32;;
27746;SDS011;15138;51.012;4.692;2024-01-10T13:41:45;16.55;;;7.60;;
27746;SDS011;15138;51.012;4.692;2024-01-10T13:44:14;21.60;;;8.60;;
27746;SDS011;15138;51.012;4.692;2024-01-10T13:46:42;19.52;;;8.77;;
27746;SDS011;15138;51.012;4.692;2024-01-10T13:49:11;23.35;;;9.52;;
27746;SDS011;15138;51.012;4.692;2024-01-10T13:51:40;16.98;;;7.20;;
27746;SDS011;15138;51.012;4.692;2024-01-10T13:54:09;16.50;;;6.70;;
27746;SDS011;15138;51.012;4.692;2024-01-10T13:56:39;17.25;;;7.60;;
27746;SDS011;15138;51.012;4.692;2024-01-10T13:59:07;18.75;;;9.00;;
27746;SDS011;15138;51.012;4.692;2024-01-10T14:01:36;18.17;;;7.57;;
27746;SDS011;15138;51.012;4.692;2024-01-10T14:04:05;19.83;;;9.10;;
27746;SDS011;15138;51.012;4.692;2024-01-10T14:06:33;22.77;;;9.93;;
27746;SDS011;15138;51.012;4.692;2024-01-10T14:09:02;17.35;;;8.70;;
27746;SDS011;15138;51.012;4.692;2024-01-10T14:11:31;17.25;;;7.70;;
27746;SDS011;15138;51.012;4.692;2024-01-10T14:14:02;17.02;;;8.57;;
27746;SDS011;15138;51.012;4.692;2024-01-10T14:16:31;19.90;;;8.85;;
27746;SDS011;15138;51.012;4.692;2024-01-10T14:18:59;17.98;;;8.70;;
27746;SDS011;15138;51.012;4.692;2024-01-10T14:21:28;15.43;;;7.38;;
27746;SDS011;15138;51.012;4.692;2024-01-10T14:23:58;20.00;;;9.60;;
27746;SDS011;15138;51.012;4.692;2024-01-10T14:26:27;16.98;;;8.15;;
27746;SDS011;15138;51.012;4.692;2024-01-10T14:28:55;17.92;;;9.32;;
27746;SDS011;15138;51.012;4.692;2024-01-10T14:31:27;19.10;;;9.20;;
27746;SDS011;15138;51.012;4.692;2024-01-10T14:34:15;19.23;;;9.00;;
27746;SDS011;15138;51.012;4.692;2024-01-10T14:36:46;19.08;;;8.40;;
27746;SDS011;15138;51.012;4.692;2024-01-10T14:39:14;17.60;;;8.27;;
27746;SDS011;15138;51.012;4.692;2024-01-10T14:41:44;17.52;;;8.23;;
27746;SDS011;15138;51.012;4.692;2024-01-10T14:44:13;20.73;;;8.80;;
27746;SDS011;15138;51.012;4.692;2024-01-10T14:46:42;17.20;;;7.82;;
27746;SDS011;15138;51.012;4.692;2024-01-10T14:49:21;19.67;;;8.55;;
27746;SDS011;15138;51.012;4.692;2024-01-10T14:51:50;17.42;;;9.15;;
27746;SDS011;15138;51.012;4.692;2024-01-10T14:54:19;18.05;;;8.15;;
27746;SDS011;15138;51.012;4.692;2024-01-10T14:56:48;18.77;;;8.10;;